createdAt,value
2022-12-18T00:02:48.749Z,100.00
2022-12-18T00:06:50.588Z,100.00
2022-12-18T00:10:52.576Z,100.00
2022-12-18T00:14:54.517Z,100.00
2022-12-18T00:18:57.606Z,100.00
2022-12-18T00:22:59.295Z,100.00
2022-12-18T00:27:00.976Z,100.00
2022-12-18T00:31:04.905Z,100.00
2022-12-18T00:35:08.212Z,100.00
2022-12-18T00:39:11.876Z,100.00
2022-12-18T00:43:13.497Z,100.00
2022-12-18T00:47:15.228Z,100.00
2022-12-18T00:51:16.794Z,100.00
2022-12-18T00:55:19.027Z,100.00
2022-12-18T00:59:22.263Z,100.00
2022-12-18T01:03:28.507Z,100.00
2022-12-18T01:07:30.152Z,100.00
2022-12-18T01:11:32.177Z,100.00
2022-12-18T01:15:33.764Z,100.00
2022-12-18T01:19:36.208Z,100.00
2022-12-18T01:23:40.121Z,100.00
2022-12-18T01:27:42.114Z,100.00
2022-12-18T01:31:43.835Z,100.00
2022-12-18T01:35:45.513Z,100.00
2022-12-18T01:39:47.169Z,100.00
2022-12-18T01:43:55.057Z,100.00
2022-12-18T01:48:04.294Z,100.00
2022-12-18T01:52:06.058Z,100.00
2022-12-18T01:56:08.290Z,100.00
2022-12-18T02:00:16.036Z,100.00
2022-12-18T02:04:26.370Z,100.00
2022-12-18T02:08:50.296Z,100.00
2022-12-18T02:13:17.960Z,100.00
2022-12-18T02:17:23.072Z,100.00
2022-12-18T02:21:44.509Z,100.00
2022-12-18T02:26:08.778Z,100.00
2022-12-18T02:30:11.618Z,100.00
2022-12-18T02:34:14.669Z,100.00
2022-12-18T02:38:18.051Z,100.00
2022-12-18T02:42:23.963Z,100.00
2022-12-18T02:46:37.608Z,100.00
2022-12-18T02:51:22.943Z,100.00
2022-12-18T02:55:58.524Z,100.00
2022-12-18T03:00:15.622Z,100.00
2022-12-18T03:04:27.276Z,100.00
2022-12-18T03:08:36.396Z,100.00
2022-12-18T03:12:44.045Z,100.00
2022-12-18T03:16:48.084Z,100.00
2022-12-18T03:20:52.647Z,100.00
2022-12-18T03:24:58.632Z,100.00
2022-12-18T03:29:10.818Z,100.00
2022-12-18T03:33:22.735Z,100.00
2022-12-18T03:37:26.820Z,100.00
2022-12-18T03:41:32.630Z,100.00
2022-12-18T03:46:06.589Z,100.00
2022-12-18T03:50:15.809Z,100.00
2022-12-18T03:54:22.067Z,100.00
2022-12-18T03:58:34.347Z,100.00
2022-12-18T04:02:57.299Z,100.00
2022-12-18T04:07:08.273Z,100.00
2022-12-18T04:11:13.040Z,100.00
2022-12-18T04:15:15.410Z,100.00
2022-12-18T04:19:18.682Z,100.00
2022-12-18T04:23:23.470Z,100.00
2022-12-18T04:27:25.800Z,100.00
2022-12-18T04:31:28.420Z,100.00
2022-12-18T04:35:31.218Z,100.00
2022-12-18T04:39:32.938Z,100.00
2022-12-18T04:43:40.941Z,100.00
2022-12-18T04:47:42.762Z,100.00
2022-12-18T04:51:44.319Z,100.00
2022-12-18T04:55:45.953Z,100.00
2022-12-18T04:59:47.512Z,100.00
2022-12-18T05:03:49.246Z,100.00
2022-12-18T05:07:50.854Z,100.00
2022-12-18T05:11:52.487Z,100.00
2022-12-18T05:15:55.310Z,100.00
2022-12-18T05:19:56.957Z,100.00
2022-12-18T05:23:58.523Z,100.00
2022-12-18T05:28:01.593Z,100.00
2022-12-18T05:32:03.346Z,100.00
2022-12-18T05:36:07.900Z,100.00
2022-12-18T05:40:10.235Z,100.00
2022-12-18T05:44:11.882Z,100.00
2022-12-18T05:48:13.718Z,100.00
2022-12-18T05:52:16.440Z,100.00
2022-12-18T05:56:20.593Z,100.00
2022-12-18T06:00:22.272Z,100.00
2022-12-18T06:04:24.100Z,100.00
2022-12-18T06:08:25.729Z,100.00
2022-12-18T06:12:27.370Z,100.00
2022-12-18T06:16:30.071Z,100.00
2022-12-18T06:20:33.757Z,100.00
2022-12-18T06:24:35.585Z,100.00
2022-12-18T06:28:37.256Z,100.00
2022-12-18T06:32:38.918Z,100.00
2022-12-18T06:36:40.502Z,100.00
2022-12-18T06:40:42.259Z,100.00
2022-12-18T06:44:43.834Z,100.00
2022-12-18T06:48:49.466Z,100.00
2022-12-18T06:52:51.168Z,100.00
2022-12-18T06:56:52.754Z,100.00
2022-12-18T07:00:54.358Z,100.00
2022-12-18T07:04:58.016Z,100.00
2022-12-18T07:08:59.618Z,100.00
2022-12-18T07:13:01.214Z,100.00
2022-12-18T07:17:03.051Z,100.00
2022-12-18T07:21:08.746Z,100.00
2022-12-18T07:25:10.478Z,100.00
2022-12-18T07:29:12.164Z,100.00
2022-12-18T07:33:13.798Z,100.00
2022-12-18T07:37:15.402Z,100.00
2022-12-18T07:41:17.440Z,100.00
2022-12-18T07:45:19.017Z,100.00
2022-12-18T07:49:20.726Z,100.00
2022-12-18T07:53:22.335Z,100.00
2022-12-18T07:57:49.009Z,100.00
2022-12-18T08:01:45.825Z,100.00
2022-12-18T08:05:51.521Z,100.00
2022-12-18T08:09:53.039Z,100.00
2022-12-18T08:13:55.311Z,100.00
2022-12-18T08:17:57.858Z,100.00
2022-12-18T08:21:59.512Z,100.00
2022-12-18T08:26:01.106Z,100.00
2022-12-18T08:30:04.041Z,100.00
2022-12-18T08:34:05.893Z,100.00
2022-12-18T08:38:08.276Z,100.00
2022-12-18T08:42:29.436Z,100.00
2022-12-18T08:46:37.217Z,100.00
2022-12-18T08:50:38.989Z,100.00
2022-12-18T08:54:40.668Z,100.00
2022-12-18T08:58:43.578Z,100.00
2022-12-18T09:02:55.502Z,100.00
2022-12-18T09:06:57.190Z,100.00
2022-12-18T09:10:59.081Z,100.00
2022-12-18T09:15:00.660Z,100.00
2022-12-18T09:19:04.866Z,100.00
2022-12-18T09:23:07.249Z,100.00
2022-12-18T09:27:08.892Z,100.00
2022-12-18T09:31:16.614Z,100.00
2022-12-18T09:35:18.240Z,100.00
2022-12-18T09:39:20.111Z,100.00
2022-12-18T09:43:30.580Z,100.00
2022-12-18T09:47:37.477Z,100.00
2022-12-18T09:52:05.043Z,100.00
2022-12-18T09:56:11.851Z,100.00
2022-12-18T10:00:20.997Z,100.00
2022-12-18T10:04:22.763Z,100.00
2022-12-18T10:08:43.108Z,100.00
2022-12-18T10:13:04.859Z,100.00
2022-12-18T10:17:45.003Z,100.00
2022-12-18T10:22:12.538Z,100.00
2022-12-18T10:26:14.206Z,100.00
2022-12-18T10:30:23.565Z,99.31
2022-12-18T10:34:25.395Z,98.22
2022-12-18T10:38:32.850Z,95.96
2022-12-18T10:42:34.706Z,95.02
2022-12-18T10:46:36.410Z,94.72
2022-12-18T10:51:09.704Z,93.58
2022-12-18T10:55:04.543Z,93.03
2022-12-18T10:59:11.311Z,91.46
2022-12-18T11:03:40.364Z,92.81
2022-12-18T11:07:51.132Z,90.02
2022-12-18T11:11:55.460Z,91.20
2022-12-18T11:15:57.924Z,92.04
2022-12-18T11:20:02.259Z,92.13
2022-12-18T11:24:04.072Z,89.56
2022-12-18T11:28:26.772Z,90.38
2022-12-18T11:32:37.100Z,90.44
2022-12-18T11:36:45.612Z,90.24
2022-12-18T11:40:57.299Z,90.20
2022-12-18T11:45:04.478Z,91.03
2022-12-18T11:49:37.791Z,91.13
2022-12-18T11:53:41.048Z,89.71
2022-12-18T11:57:54.033Z,89.86
2022-12-18T12:02:21.123Z,85.65
2022-12-18T12:06:48.490Z,85.23
2022-12-18T12:10:56.556Z,84.19
2022-12-18T12:15:14.268Z,84.36
2022-12-18T12:19:35.208Z,84.83
2022-12-18T12:23:58.319Z,82.87
2022-12-18T12:28:10.601Z,83.78
2022-12-18T12:32:15.296Z,82.59
2022-12-18T12:36:30.668Z,82.86
2022-12-18T12:40:58.750Z,83.49
2022-12-18T12:45:01.720Z,83.28
2022-12-18T12:49:05.744Z,81.78
2022-12-18T12:53:10.669Z,81.82
2022-12-18T12:57:31.949Z,81.96
2022-12-18T13:01:49.433Z,83.19
2022-12-18T13:05:54.017Z,82.95
2022-12-18T13:10:23.650Z,83.40
2022-12-18T13:14:38.918Z,84.05
2022-12-18T13:18:50.381Z,84.59
2022-12-18T13:22:52.459Z,85.48
2022-12-18T13:26:55.074Z,85.83
2022-12-18T13:30:57.961Z,86.52
2022-12-18T13:35:29.410Z,86.62
2022-12-18T13:39:35.497Z,86.54
2022-12-18T13:43:48.374Z,86.76
2022-12-18T13:47:51.001Z,86.61
2022-12-18T13:51:56.272Z,86.62
2022-12-18T13:55:58.477Z,86.78
2022-12-18T14:00:24.440Z,86.30
2022-12-18T14:04:31.298Z,87.46
2022-12-18T14:08:44.883Z,87.67
2022-12-18T14:13:00.972Z,87.91
2022-12-18T14:17:11.300Z,87.90
2022-12-18T14:21:24.267Z,87.98
2022-12-18T14:25:27.480Z,88.68
2022-12-18T14:29:30.859Z,88.82
2022-12-18T14:33:32.430Z,88.97
2022-12-18T14:37:34.024Z,89.05
2022-12-18T14:41:35.806Z,89.59
2022-12-18T14:45:42.291Z,89.77
2022-12-18T14:49:45.748Z,90.50
2022-12-18T14:53:54.382Z,90.69
2022-12-18T14:57:57.954Z,91.07
2022-12-18T15:02:18.067Z,91.39
2022-12-18T15:06:28.670Z,91.92
2022-12-18T15:10:33.954Z,92.17
2022-12-18T15:14:39.552Z,92.53
2022-12-18T15:18:46.161Z,92.53
2022-12-18T15:22:48.501Z,93.08
2022-12-18T15:26:50.206Z,93.14
2022-12-18T15:31:10.926Z,93.39
2022-12-18T15:35:12.501Z,93.80
2022-12-18T15:39:14.447Z,94.59
2022-12-18T15:43:34.718Z,95.54
2022-12-18T15:47:36.335Z,96.72
2022-12-18T15:51:39.303Z,96.92
2022-12-18T15:56:01.295Z,97.06
2022-12-18T16:00:03.308Z,97.14
2022-12-18T16:04:06.624Z,96.78
2022-12-18T16:08:08.214Z,97.05
2022-12-18T16:12:20.439Z,96.94
2022-12-18T16:16:22.120Z,97.16
2022-12-18T16:20:24.812Z,97.26
2022-12-18T16:24:29.271Z,97.45
2022-12-18T16:28:30.897Z,97.78
2022-12-18T16:32:33.975Z,97.53
2022-12-18T16:36:35.486Z,98.38
2022-12-18T16:40:59.004Z,98.50
2022-12-18T16:45:00.632Z,98.84
2022-12-18T16:49:02.362Z,98.49
2022-12-18T16:53:04.025Z,99.04
2022-12-18T16:57:05.665Z,99.13
2022-12-18T17:01:11.419Z,98.72
2022-12-18T17:05:13.025Z,98.68
2022-12-18T17:09:16.536Z,98.74
2022-12-18T17:13:21.425Z,98.77
2022-12-18T17:17:27.209Z,98.82
2022-12-18T17:21:29.163Z,98.74
2022-12-18T17:25:30.735Z,98.97
2022-12-18T17:29:32.419Z,98.92
2022-12-18T17:33:34.036Z,99.49
2022-12-18T17:37:36.870Z,99.61
2022-12-18T17:41:38.538Z,99.64
2022-12-18T17:45:40.669Z,99.44
2022-12-18T17:49:42.340Z,99.76
2022-12-18T17:53:44.955Z,99.44
2022-12-18T17:57:46.831Z,99.66
2022-12-18T18:01:48.860Z,99.38
2022-12-18T18:05:58.900Z,99.60
2022-12-18T18:10:00.451Z,99.86
2022-12-18T18:14:02.474Z,99.77
2022-12-18T18:18:04.111Z,99.50
2022-12-18T18:22:25.088Z,99.18
2022-12-18T18:26:29.271Z,99.27
2022-12-18T18:30:31.752Z,99.55
2022-12-18T18:34:33.549Z,99.29
2022-12-18T18:38:35.129Z,99.29
2022-12-18T18:42:36.754Z,99.44
2022-12-18T18:46:38.348Z,99.33
2022-12-18T18:50:40.216Z,99.27
2022-12-18T18:55:03.595Z,99.46
2022-12-18T18:59:03.754Z,99.47
2022-12-18T19:03:05.566Z,99.51
2022-12-18T19:07:07.649Z,99.15
2022-12-18T19:11:33.161Z,99.10
2022-12-18T19:15:37.905Z,99.43
2022-12-18T19:19:40.320Z,99.19
2022-12-18T19:23:42.168Z,99.08
2022-12-18T19:27:43.982Z,98.81
2022-12-18T19:31:45.745Z,99.10
2022-12-18T19:35:49.051Z,99.08
2022-12-18T19:39:51.140Z,99.61
2022-12-18T19:43:52.848Z,99.09
2022-12-18T19:47:58.559Z,98.91
2022-12-18T19:52:04.665Z,99.22
2022-12-18T19:56:11.403Z,99.43
2022-12-18T20:00:18.630Z,99.79
2022-12-18T20:04:20.638Z,99.83
2022-12-18T20:08:22.719Z,99.41
2022-12-18T20:12:24.474Z,99.15
2022-12-18T20:16:26.373Z,99.38
2022-12-18T20:20:28.595Z,99.42
2022-12-18T20:24:30.319Z,99.82
2022-12-18T20:28:31.967Z,100.00
2022-12-18T20:32:37.038Z,99.93
2022-12-18T20:36:39.828Z,100.00
2022-12-18T20:40:42.686Z,100.00
2022-12-18T20:44:45.749Z,100.00
2022-12-18T20:48:48.207Z,100.00
2022-12-18T20:52:49.831Z,100.00
2022-12-18T20:56:51.715Z,100.00
2022-12-18T21:01:08.281Z,100.00
2022-12-18T21:05:09.907Z,100.00
2022-12-18T21:09:12.212Z,100.00
2022-12-18T21:13:13.868Z,100.00
2022-12-18T21:17:16.156Z,100.00
2022-12-18T21:21:21.862Z,100.00
2022-12-18T21:25:29.728Z,100.00
2022-12-18T21:29:31.540Z,100.00
2022-12-18T21:33:33.147Z,100.00
2022-12-18T21:37:34.751Z,100.00
2022-12-18T21:41:55.426Z,100.00
2022-12-18T21:45:58.043Z,100.00
2022-12-18T21:50:01.375Z,100.00
2022-12-18T21:54:03.821Z,100.00
2022-12-18T21:58:05.362Z,100.00
2022-12-18T22:02:19.704Z,100.00
2022-12-18T22:06:22.449Z,100.00
2022-12-18T22:10:24.019Z,100.00
2022-12-18T22:14:25.876Z,100.00
2022-12-18T22:18:27.585Z,100.00
2022-12-18T22:22:29.348Z,100.00
2022-12-18T22:26:39.529Z,100.00
2022-12-18T22:30:41.908Z,100.00
2022-12-18T22:34:43.590Z,100.00
2022-12-18T22:38:46.839Z,100.00
2022-12-18T22:42:50.585Z,100.00
2022-12-18T22:47:05.502Z,100.00
2022-12-18T22:51:15.659Z,100.00
2022-12-18T22:55:17.475Z,100.00
2022-12-18T22:59:20.840Z,100.00
2022-12-18T23:03:22.466Z,100.00
2022-12-18T23:07:24.108Z,100.00
2022-12-18T23:11:26.645Z,100.00
2022-12-18T23:15:28.723Z,100.00
2022-12-18T23:19:30.431Z,100.00
2022-12-18T23:23:36.758Z,100.00
2022-12-18T23:27:38.320Z,100.00
2022-12-18T23:31:40.130Z,100.00
2022-12-18T23:35:41.719Z,100.00
2022-12-18T23:39:43.406Z,100.00
2022-12-18T23:43:45.043Z,100.00
2022-12-18T23:47:51.188Z,100.00
2022-12-18T23:51:55.165Z,100.00
2022-12-18T23:55:56.695Z,100.00
2022-12-18T23:59:59.686Z,100.00
